sensor_id;sensor_type;location;lat;lon;timestamp;pressure;altitude;pressure_sealevel;temperature;humidity
10587;BME280;5341;47.606;7.576;2023-02-02T00:01:31;99940.19;;;7.23;65.33
10587;BME280;5341;47.606;7.576;2023-02-02T00:03:59;99936.56;;;7.24;65.15
10587;BME280;5341;47.606;7.576;2023-02-02T00:06:28;99930.25;;;7.25;65.54
10587;BME280;5341;47.606;7.576;2023-02-02T00:08:56;99931.00;;;7.27;65.54
10587;BME280;5341;47.606;7.576;2023-02-02T00:11:26;99941.63;;;7.27;65.38
10587;BME280;5341;47.606;7.576;2023-02-02T00:13:54;99931.94;;;7.26;65.59
10587;BME280;5341;47.606;7.576;2023-02-02T00:16:36;99923.94;;;7.26;65.58
10587;BME280;5341;47.606;7.576;2023-02-02T00:19:05;99925.78;;;7.25;65.33
10587;BME280;5341;47.606;7.576;2023-02-02T00:21:33;99922.41;;;7.23;65.40
10587;BME280;5341;47.606;7.576;2023-02-02T00:24:00;99929.41;;;7.24;65.30
10587;BME280;5341;47.606;7.576;2023-02-02T00:26:29;99939.06;;;7.25;65.63
10587;BME280;5341;47.606;7.576;2023-02-02T00:28:57;99944.41;;;7.25;65.79
10587;BME280;5341;47.606;7.576;2023-02-02T00:31:25;99943.56;;;7.25;65.48
10587;BME280;5341;47.606;7.576;2023-02-02T00:33:53;99944.53;;;7.24;65.59
10587;BME280;5341;47.606;7.576;2023-02-02T00:36:21;99933.03;;;7.23;65.57
10587;BME280;5341;47.606;7.576;2023-02-02T00:38:50;99938.22;;;7.25;65.68
10587;BME280;5341;47.606;7.576;2023-02-02T00:41:20;99934.72;;;7.24;65.99
10587;BME280;5341;47.606;7.576;2023-02-02T00:43:49;99928.31;;;7.27;65.87
10587;BME280;5341;47.606;7.576;2023-02-02T00:46:30;99925.66;;;7.27;66.04
10587;BME280;5341;47.606;7.576;2023-02-02T00:48:58;99926.50;;;7.27;65.86
10587;BME280;5341;47.606;7.576;2023-02-02T00:51:25;99925.66;;;7.27;65.72
10587;BME280;5341;47.606;7.576;2023-02-02T00:53:57;99933.88;;;7.24;65.81
10587;BME280;5341;47.606;7.576;2023-02-02T00:58:57;99935.84;;;7.22;65.98
10587;BME280;5341;47.606;7.576;2023-02-02T01:01:25;99945.78;;;7.20;65.76
10587;BME280;5341;47.606;7.576;2023-02-02T01:03:54;99956.41;;;7.20;66.22
10587;BME280;5341;47.606;7.576;2023-02-02T01:06:25;99951.94;;;7.20;66.10
10587;BME280;5341;47.606;7.576;2023-02-02T01:08:56;99959.78;;;7.22;66.31
10587;BME280;5341;47.606;7.576;2023-02-02T01:11:24;99969.44;;;7.23;66.28
10587;BME280;5341;47.606;7.576;2023-02-02T01:13:58;99963.16;;;7.24;66.05
10587;BME280;5341;47.606;7.576;2023-02-02T01:16:27;99969.44;;;7.23;66.27
10587;BME280;5341;47.606;7.576;2023-02-02T01:21:21;99977.00;;;7.18;66.42
10587;BME280;5341;47.606;7.576;2023-02-02T01:23:50;99979.66;;;7.18;66.48
10587;BME280;5341;47.606;7.576;2023-02-02T01:26:18;99989.47;;;7.17;66.33
10587;BME280;5341;47.606;7.576;2023-02-02T01:28:47;99989.31;;;7.19;66.32
10587;BME280;5341;47.606;7.576;2023-02-02T01:31:18;99989.31;;;7.19;66.77
10587;BME280;5341;47.606;7.576;2023-02-02T01:33:47;99990.53;;;7.15;66.46
10587;BME280;5341;47.606;7.576;2023-02-02T01:36:16;99990.66;;;7.13;66.94
10587;BME280;5341;47.606;7.576;2023-02-02T01:38:44;99995.84;;;7.15;67.06
10587;BME280;5341;47.606;7.576;2023-02-02T01:41:20;99988.75;;;7.15;66.68
10587;BME280;5341;47.606;7.576;2023-02-02T01:43:55;99988.41;;;7.09;66.66
10587;BME280;5341;47.606;7.576;2023-02-02T01:46:29;99997.50;;;7.06;66.76
10587;BME280;5341;47.606;7.576;2023-02-02T01:51:31;100004.81;;;7.14;67.11
10587;BME280;5341;47.606;7.576;2023-02-02T01:54:06;100008.91;;;7.18;67.21
10587;BME280;5341;47.606;7.576;2023-02-02T01:56:44;100008.78;;;7.19;67.12
10587;BME280;5341;47.606;7.576;2023-02-02T01:59:19;100008.66;;;7.21;66.98
10587;BME280;5341;47.606;7.576;2023-02-02T02:01:54;100006.69;;;7.23;67.09
10587;BME280;5341;47.606;7.576;2023-02-02T02:04:23;99992.69;;;7.21;67.01
10587;BME280;5341;47.606;7.576;2023-02-02T02:07:00;99998.00;;;7.21;67.10
10587;BME280;5341;47.606;7.576;2023-02-02T02:09:39;99988.22;;;7.21;66.96
10587;BME280;5341;47.606;7.576;2023-02-02T02:12:10;99988.06;;;7.23;67.29
10587;BME280;5341;47.606;7.576;2023-02-02T02:15:11;99972.13;;;7.23;67.08
10587;BME280;5341;47.606;7.576;2023-02-02T02:18:06;99972.53;;;7.18;67.02
10587;BME280;5341;47.606;7.576;2023-02-02T02:32:13;99968.16;;;7.17;66.94
10587;BME280;5341;47.606;7.576;2023-02-02T02:34:51;99967.34;;;7.17;66.92
10587;BME280;5341;47.606;7.576;2023-02-02T02:37:30;99962.00;;;7.17;67.00
10587;BME280;5341;47.606;7.576;2023-02-02T02:45:27;99961.16;;;7.16;67.32
10587;BME280;5341;47.606;7.576;2023-02-02T02:47:59;99957.53;;;7.17;67.18
10587;BME280;5341;47.606;7.576;2023-02-02T02:50:28;99968.03;;;7.19;67.21
10587;BME280;5341;47.606;7.576;2023-02-02T02:53:05;99965.38;;;7.19;67.62
10587;BME280;5341;47.606;7.576;2023-02-02T02:55:41;99963.44;;;7.21;67.41
10587;BME280;5341;47.606;7.576;2023-02-02T02:58:17;99960.75;;;7.21;67.43
10587;BME280;5341;47.606;7.576;2023-02-02T03:00:56;99954.59;;;7.20;67.23
10587;BME280;5341;47.606;7.576;2023-02-02T03:03:36;99950.13;;;7.21;67.41
10587;BME280;5341;47.606;7.576;2023-02-02T03:06:13;99954.59;;;7.20;67.21
10587;BME280;5341;47.606;7.576;2023-02-02T03:08:45;99957.25;;;7.20;67.21
10587;BME280;5341;47.606;7.576;2023-02-02T03:11:14;99961.88;;;7.18;67.10
10587;BME280;5341;47.606;7.576;2023-02-02T03:13:43;99951.25;;;7.18;67.54
10587;BME280;5341;47.606;7.576;2023-02-02T03:16:11;99946.75;;;7.19;67.34
10587;BME280;5341;47.606;7.576;2023-02-02T03:18:40;99942.41;;;7.18;67.32
10587;BME280;5341;47.606;7.576;2023-02-02T03:21:10;99947.72;;;7.18;67.17
10587;BME280;5341;47.606;7.576;2023-02-02T03:23:38;99946.06;;;7.17;67.42
10587;BME280;5341;47.606;7.576;2023-02-02T03:26:07;99937.34;;;7.15;67.59
10587;BME280;5341;47.606;7.576;2023-02-02T03:28:35;99947.25;;;7.13;67.41
10587;BME280;5341;47.606;7.576;2023-02-02T03:31:02;99943.19;;;7.09;67.52
10587;BME280;5341;47.606;7.576;2023-02-02T03:33:31;99953.13;;;7.07;67.35
10587;BME280;5341;47.606;7.576;2023-02-02T03:36:01;99952.16;;;7.08;67.67
10587;BME280;5341;47.606;7.576;2023-02-02T03:38:29;99949.34;;;7.09;67.55
10587;BME280;5341;47.606;7.576;2023-02-02T03:40:56;99965.03;;;7.12;67.67
10587;BME280;5341;47.606;7.576;2023-02-02T03:43:24;99966.72;;;7.13;67.55
10587;BME280;5341;47.606;7.576;2023-02-02T03:45:56;99964.34;;;7.10;67.73
10587;BME280;5341;47.606;7.576;2023-02-02T03:48:24;99974.72;;;7.13;67.67
10587;BME280;5341;47.606;7.576;2023-02-02T03:50:52;99972.88;;;7.14;67.50
10587;BME280;5341;47.606;7.576;2023-02-02T03:53:22;99977.22;;;7.15;67.64
10587;BME280;5341;47.606;7.576;2023-02-02T03:55:49;99977.97;;;7.17;67.67
10587;BME280;5341;47.606;7.576;2023-02-02T03:58:16;99977.13;;;7.16;67.73
10587;BME280;5341;47.606;7.576;2023-02-02T04:00:47;99984.13;;;7.17;67.67
10587;BME280;5341;47.606;7.576;2023-02-02T04:03:14;99978.81;;;7.17;67.66
10587;BME280;5341;47.606;7.576;2023-02-02T04:05:42;99980.63;;;7.17;67.52
10587;BME280;5341;47.606;7.576;2023-02-02T04:08:09;99975.31;;;7.17;67.69
10587;BME280;5341;47.606;7.576;2023-02-02T04:10:38;99985.13;;;7.16;67.64
10587;BME280;5341;47.606;7.576;2023-02-02T04:13:07;99984.28;;;7.16;67.86
10587;BME280;5341;47.606;7.576;2023-02-02T04:15:35;99979.66;;;7.18;67.88
10587;BME280;5341;47.606;7.576;2023-02-02T04:18:02;99977.00;;;7.18;67.62
10587;BME280;5341;47.606;7.576;2023-02-02T04:20:31;99977.84;;;7.18;67.65
10587;BME280;5341;47.606;7.576;2023-02-02T04:22:58;99978.53;;;7.20;67.75
10587;BME280;5341;47.606;7.576;2023-02-02T04:25:25;99978.28;;;7.23;67.62
10587;BME280;5341;47.606;7.576;2023-02-02T04:27:54;99980.81;;;7.25;67.63
10587;BME280;5341;47.606;7.576;2023-02-02T04:30:21;99982.47;;;7.26;67.73
10587;BME280;5341;47.606;7.576;2023-02-02T04:32:50;99976.09;;;7.28;67.95
10587;BME280;5341;47.606;7.576;2023-02-02T04:35:17;99974.41;;;7.27;67.73
10587;BME280;5341;47.606;7.576;2023-02-02T04:37:45;99979.59;;;7.29;67.74
10587;BME280;5341;47.606;7.576;2023-02-02T04:40:13;99974.25;;;7.29;67.90
10587;BME280;5341;47.606;7.576;2023-02-02T04:42:40;99967.13;;;7.29;67.59
10587;BME280;5341;47.606;7.576;2023-02-02T04:45:11;99961.81;;;7.29;67.51
10587;BME280;5341;47.606;7.576;2023-02-02T04:47:39;99971.47;;;7.30;67.64
10587;BME280;5341;47.606;7.576;2023-02-02T04:50:07;99979.44;;;7.30;67.83
10587;BME280;5341;47.606;7.576;2023-02-02T04:52:35;99971.47;;;7.30;67.75
10587;BME280;5341;47.606;7.576;2023-02-02T04:55:02;99973.28;;;7.30;67.66
10587;BME280;5341;47.606;7.576;2023-02-02T04:57:30;99966.41;;;7.27;67.65
10587;BME280;5341;47.606;7.576;2023-02-02T04:59:58;99976.94;;;7.29;67.80
10587;BME280;5341;47.606;7.576;2023-02-02T05:02:27;99977.78;;;7.29;67.89
10587;BME280;5341;47.606;7.576;2023-02-02T05:04:54;99975.94;;;7.30;67.79
10587;BME280;5341;47.606;7.576;2023-02-02T05:07:21;99979.59;;;7.29;67.83
10587;BME280;5341;47.606;7.576;2023-02-02T05:09:49;99974.25;;;7.29;67.96
10587;BME280;5341;47.606;7.576;2023-02-02T05:12:16;99976.94;;;7.29;67.77
10587;BME280;5341;47.606;7.576;2023-02-02T05:14:43;99981.41;;;7.28;67.96
10587;BME280;5341;47.606;7.576;2023-02-02T05:17:11;99983.09;;;7.29;67.95
10587;BME280;5341;47.606;7.576;2023-02-02T05:19:40;99990.22;;;7.29;67.95
10587;BME280;5341;47.606;7.576;2023-02-02T05:22:07;99984.91;;;7.29;67.90
10587;BME280;5341;47.606;7.576;2023-02-02T05:24:35;99985.88;;;7.28;67.48
10587;BME280;5341;47.606;7.576;2023-02-02T05:27:02;99976.09;;;7.28;67.78
10587;BME280;5341;47.606;7.576;2023-02-02T05:29:30;99979.59;;;7.29;67.72
10587;BME280;5341;47.606;7.576;2023-02-02T05:31:58;99977.16;;;7.26;67.49
10587;BME280;5341;47.606;7.576;2023-02-02T05:34:25;99974.50;;;7.26;67.89
10587;BME280;5341;47.606;7.576;2023-02-02T05:36:54;99976.47;;;7.24;67.74
10587;BME280;5341;47.606;7.576;2023-02-02T05:39:22;99971.28;;;7.22;68.00
10587;BME280;5341;47.606;7.576;2023-02-02T05:41:49;99971.97;;;7.24;68.17
10587;BME280;5341;47.606;7.576;2023-02-02T05:44:16;99971.28;;;7.22;68.22
10587;BME280;5341;47.606;7.576;2023-02-02T05:46:44;99967.78;;;7.22;68.21
10587;BME280;5341;47.606;7.576;2023-02-02T05:49:13;99976.31;;;7.25;67.82
10587;BME280;5341;47.606;7.576;2023-02-02T05:51:42;99975.47;;;7.25;67.99
10587;BME280;5341;47.606;7.576;2023-02-02T05:54:13;99976.47;;;7.24;68.12
10587;BME280;5341;47.606;7.576;2023-02-02T05:56:45;99974.63;;;7.24;68.06
10587;BME280;5341;47.606;7.576;2023-02-02T05:59:14;99982.63;;;7.24;68.10
10587;BME280;5341;47.606;7.576;2023-02-02T06:01:42;99983.47;;;7.25;68.07
10587;BME280;5341;47.606;7.576;2023-02-02T06:04:10;99988.66;;;7.26;68.21
10587;BME280;5341;47.606;7.576;2023-02-02T06:06:38;99985.41;;;7.23;68.26
10587;BME280;5341;47.606;7.576;2023-02-02T06:09:08;99984.56;;;7.22;68.19
10587;BME280;5341;47.606;7.576;2023-02-02T06:11:37;99982.75;;;7.23;68.13
10587;BME280;5341;47.606;7.576;2023-02-02T06:14:05;99986.25;;;7.23;68.18
10587;BME280;5341;47.606;7.576;2023-02-02T06:16:33;99989.19;;;7.20;68.09
10587;BME280;5341;47.606;7.576;2023-02-02T06:19:01;99981.34;;;7.19;68.19
10587;BME280;5341;47.606;7.576;2023-02-02T06:21:29;99988.34;;;7.20;68.22
10587;BME280;5341;47.606;7.576;2023-02-02T06:23:57;99990.75;;;7.23;68.24
10587;BME280;5341;47.606;7.576;2023-02-02T06:26:25;99993.41;;;7.23;68.22
10587;BME280;5341;47.606;7.576;2023-02-02T06:28:54;99999.69;;;7.22;68.49
10587;BME280;5341;47.606;7.576;2023-02-02T06:31:22;100001.38;;;7.23;68.53
10587;BME280;5341;47.606;7.576;2023-02-02T06:33:54;100011.19;;;7.22;68.20
10587;BME280;5341;47.606;7.576;2023-02-02T06:36:23;100002.34;;;7.22;68.10
10587;BME280;5341;47.606;7.576;2023-02-02T06:38:57;100007.53;;;7.23;67.93
10587;BME280;5341;47.606;7.576;2023-02-02T06:41:30;100009.38;;;7.23;67.93
10587;BME280;5341;47.606;7.576;2023-02-02T06:43:58;100003.91;;;7.24;68.06
10587;BME280;5341;47.606;7.576;2023-02-02T06:46:26;100007.69;;;7.22;67.64
10587;BME280;5341;47.606;7.576;2023-02-02T06:48:55;100008.66;;;7.21;67.75
10587;BME280;5341;47.606;7.576;2023-02-02T06:51:31;100006.56;;;7.24;67.93
10587;BME280;5341;47.606;7.576;2023-02-02T06:54:02;100008.38;;;7.24;67.65
10587;BME280;5341;47.606;7.576;2023-02-02T06:56:33;100007.28;;;7.26;67.94
10587;BME280;5341;47.606;7.576;2023-02-02T06:59:02;100008.16;;;7.27;67.74
10587;BME280;5341;47.606;7.576;2023-02-02T07:03:54;100010.66;;;7.28;67.84
10587;BME280;5341;47.606;7.576;2023-02-02T07:06:25;100013.19;;;7.30;67.90
10587;BME280;5341;47.606;7.576;2023-02-02T07:08:54;100015.16;;;7.28;67.83
10587;BME280;5341;47.606;7.576;2023-02-02T07:11:24;100015.03;;;7.29;67.88
10587;BME280;5341;47.606;7.576;2023-02-02T07:13:52;100017.41;;;7.32;67.95
10587;BME280;5341;47.606;7.576;2023-02-02T07:16:21;100024.41;;;7.33;67.94
10587;BME280;5341;47.606;7.576;2023-02-02T07:18:50;100026.09;;;7.34;68.07
10587;BME280;5341;47.606;7.576;2023-02-02T07:21:19;100019.81;;;7.35;67.89
10587;BME280;5341;47.606;7.576;2023-02-02T07:23:47;100021.50;;;7.37;68.06
10587;BME280;5341;47.606;7.576;2023-02-02T07:26:17;100024.00;;;7.38;67.90
10587;BME280;5341;47.606;7.576;2023-02-02T07:28:46;100021.34;;;7.38;68.44
10587;BME280;5341;47.606;7.576;2023-02-02T07:31:15;100032.00;;;7.38;67.73
10587;BME280;5341;47.606;7.576;2023-02-02T07:33:47;100031.16;;;7.38;68.06
10587;BME280;5341;47.606;7.576;2023-02-02T07:36:17;100040.97;;;7.37;67.95
10587;BME280;5341;47.606;7.576;2023-02-02T07:38:46;100045.31;;;7.38;68.05
10587;BME280;5341;47.606;7.576;2023-02-02T07:41:20;100044.47;;;7.38;68.37
10587;BME280;5341;47.606;7.576;2023-02-02T07:44:00;100042.63;;;7.38;68.15
10587;BME280;5341;47.606;7.576;2023-02-02T07:46:29;100047.25;;;7.36;68.22
10587;BME280;5341;47.606;7.576;2023-02-02T07:49:00;100042.78;;;7.37;68.08
10587;BME280;5341;47.606;7.576;2023-02-02T07:51:37;100041.94;;;7.36;68.16
10587;BME280;5341;47.606;7.576;2023-02-02T07:54:07;100048.22;;;7.35;68.34
10587;BME280;5341;47.606;7.576;2023-02-02T07:56:37;100052.72;;;7.34;68.32
10587;BME280;5341;47.606;7.576;2023-02-02T07:59:05;100056.22;;;7.35;68.53
10587;BME280;5341;47.606;7.576;2023-02-02T08:01:39;100052.84;;;7.33;68.43
10587;BME280;5341;47.606;7.576;2023-02-02T08:04:08;100054.94;;;7.29;68.57
10587;BME280;5341;47.606;7.576;2023-02-02T08:06:37;100053.81;;;7.32;68.82
10587;BME280;5341;47.606;7.576;2023-02-02T08:09:07;100066.28;;;7.31;68.75
10587;BME280;5341;47.606;7.576;2023-02-02T08:11:35;100057.31;;;7.32;68.55
10587;BME280;5341;47.606;7.576;2023-02-02T08:14:04;100058.44;;;7.30;69.11
10587;BME280;5341;47.606;7.576;2023-02-02T08:16:33;100067.13;;;7.32;68.99
10587;BME280;5341;47.606;7.576;2023-02-02T08:19:00;100062.50;;;7.34;69.29
10587;BME280;5341;47.606;7.576;2023-02-02T08:21:31;100062.25;;;7.37;68.96
10587;BME280;5341;47.606;7.576;2023-02-02T08:23:59;100059.44;;;7.39;68.97
10587;BME280;5341;47.606;7.576;2023-02-02T08:26:28;100051.38;;;7.40;69.05
10587;BME280;5341;47.606;7.576;2023-02-02T08:28:57;100061.75;;;7.43;69.03
10587;BME280;5341;47.606;7.576;2023-02-02T08:31:27;100056.56;;;7.42;68.94
10587;BME280;5341;47.606;7.576;2023-02-02T08:33:55;100064.28;;;7.45;69.06
10587;BME280;5341;47.606;7.576;2023-02-02T08:36:26;100060.50;;;7.47;69.10
10587;BME280;5341;47.606;7.576;2023-02-02T08:38:59;100064.84;;;7.48;68.87
10587;BME280;5341;47.606;7.576;2023-02-02T08:41:32;100062.06;;;7.50;68.90
10587;BME280;5341;47.606;7.576;2023-02-02T08:44:04;100057.56;;;7.50;69.00
10587;BME280;5341;47.606;7.576;2023-02-02T08:46:32;100064.47;;;7.53;68.79
10587;BME280;5341;47.606;7.576;2023-02-02T08:49:00;100069.19;;;7.49;68.98
10587;BME280;5341;47.606;7.576;2023-02-02T08:51:28;100063.03;;;7.49;68.71
10587;BME280;5341;47.606;7.576;2023-02-02T08:53:57;100070.31;;;7.47;68.90
10587;BME280;5341;47.606;7.576;2023-02-02T08:56:25;100071.00;;;7.49;68.93
10587;BME280;5341;47.606;7.576;2023-02-02T08:58:54;100069.94;;;7.51;68.88
10587;BME280;5341;47.606;7.576;2023-02-02T09:01:28;100065.31;;;7.53;68.65
10587;BME280;5341;47.606;7.576;2023-02-02T09:04:01;100063.34;;;7.55;68.71
10587;BME280;5341;47.606;7.576;2023-02-02T09:06:32;100072.91;;;7.58;68.89
10587;BME280;5341;47.606;7.576;2023-02-02T09:09:02;100073.75;;;7.58;68.66
10587;BME280;5341;47.606;7.576;2023-02-02T09:11:30;100070.38;;;7.56;68.68
10587;BME280;5341;47.606;7.576;2023-02-02T09:13:58;100083.41;;;7.59;68.75
10587;BME280;5341;47.606;7.576;2023-02-02T09:16:28;100087.91;;;7.59;68.73
10587;BME280;5341;47.606;7.576;2023-02-02T09:18:55;100098.41;;;7.60;68.93
10587;BME280;5341;47.606;7.576;2023-02-02T09:21:23;100107.94;;;7.63;68.84
10587;BME280;5341;47.606;7.576;2023-02-02T09:23:52;100102.03;;;7.59;68.79
10587;BME280;5341;47.606;7.576;2023-02-02T09:26:22;100118.72;;;7.61;69.14
10587;BME280;5341;47.606;7.576;2023-02-02T09:28:58;100100.22;;;7.60;68.98
10587;BME280;5341;47.606;7.576;2023-02-02T09:31:28;100109.75;;;7.62;68.93
10587;BME280;5341;47.606;7.576;2023-02-02T09:33:59;100097.06;;;7.66;69.11
10587;BME280;5341;47.606;7.576;2023-02-02T09:36:27;100096.94;;;7.68;68.83
10587;BME280;5341;47.606;7.576;2023-02-02T09:38:55;100095.94;;;7.69;68.96
10587;BME280;5341;47.606;7.576;2023-02-02T09:44:38;100119.28;;;7.76;69.07
10587;BME280;5341;47.606;7.576;2023-02-02T09:47:15;100123.63;;;7.77;69.04
10587;BME280;5341;47.606;7.576;2023-02-02T09:49:58;100130.63;;;7.78;68.79
10587;BME280;5341;47.606;7.576;2023-02-02T09:52:30;100134.00;;;7.80;69.09
10587;BME280;5341;47.606;7.576;2023-02-02T09:55:04;100141.16;;;7.80;69.01
10587;BME280;5341;47.606;7.576;2023-02-02T09:57:38;100131.34;;;7.80;68.98
10587;BME280;5341;47.606;7.576;2023-02-02T10:00:22;100137.38;;;7.82;68.98
10587;BME280;5341;47.606;7.576;2023-02-02T10:02:55;100157.56;;;7.85;68.89
10587;BME280;5341;47.606;7.576;2023-02-02T10:05:30;100149.56;;;7.85;68.91
10587;BME280;5341;47.606;7.576;2023-02-02T10:08:06;100161.81;;;7.87;68.94
10587;BME280;5341;47.606;7.576;2023-02-02T10:10:39;100171.59;;;7.87;69.02
10587;BME280;5341;47.606;7.576;2023-02-02T10:13:12;100171.34;;;7.90;69.05
10587;BME280;5341;47.606;7.576;2023-02-02T10:15:47;100175.56;;;7.92;69.03
10587;BME280;5341;47.606;7.576;2023-02-02T10:18:21;100173.75;;;7.93;69.05
10587;BME280;5341;47.606;7.576;2023-02-02T10:20:55;100175.84;;;7.89;68.59
10587;BME280;5341;47.606;7.576;2023-02-02T10:23:26;100184.69;;;7.90;68.66
10587;BME280;5341;47.606;7.576;2023-02-02T10:25:56;100175.38;;;7.84;68.91
10587;BME280;5341;47.606;7.576;2023-02-02T10:28:41;100183.13;;;7.87;69.02
10587;BME280;5341;47.606;7.576;2023-02-02T10:31:17;100170.50;;;7.89;68.95
10587;BME280;5341;47.606;7.576;2023-02-02T10:33:57;100171.22;;;7.91;69.15
10587;BME280;5341;47.606;7.576;2023-02-02T10:36:34;100168.69;;;7.90;68.91
10587;BME280;5341;47.606;7.576;2023-02-02T10:39:12;100165.06;;;7.91;69.21
10587;BME280;5341;47.606;7.576;2023-02-02T10:41:48;100167.31;;;7.96;68.88
10587;BME280;5341;47.606;7.576;2023-02-02T10:44:29;100174.31;;;7.97;68.77
10587;BME280;5341;47.606;7.576;2023-02-02T10:47:03;100161.00;;;7.97;68.57
10587;BME280;5341;47.606;7.576;2023-02-02T10:49:34;100170.53;;;7.99;68.54
10587;BME280;5341;47.606;7.576;2023-02-02T10:52:10;100165.13;;;8.01;68.59
10587;BME280;5341;47.606;7.576;2023-02-02T10:54:48;100173.09;;;8.01;68.89
10587;BME280;5341;47.606;7.576;2023-02-02T10:57:21;100180.25;;;8.00;68.57
10587;BME280;5341;47.606;7.576;2023-02-02T10:59:58;100172.00;;;8.03;68.96
10587;BME280;5341;47.606;7.576;2023-02-02T11:02:33;100176.22;;;8.06;68.87
10587;BME280;5341;47.606;7.576;2023-02-02T11:05:01;100170.75;;;8.07;68.69
10587;BME280;5341;47.606;7.576;2023-02-02T11:07:45;100167.09;;;8.08;68.32
10587;BME280;5341;47.606;7.576;2023-02-02T11:10:13;100163.47;;;8.09;68.43
10587;BME280;5341;47.606;7.576;2023-02-02T11:12:41;100158.97;;;8.10;68.16
10587;BME280;5341;47.606;7.576;2023-02-02T11:15:25;100160.56;;;8.12;68.16
10587;BME280;5341;47.606;7.576;2023-02-02T11:17:54;100159.31;;;8.16;68.33
10587;BME280;5341;47.606;7.576;2023-02-02T11:20:26;100154.81;;;8.17;68.14
10587;BME280;5341;47.606;7.576;2023-02-02T11:23:01;100162.69;;;8.18;68.06
10587;BME280;5341;47.606;7.576;2023-02-02T11:25:32;100164.94;;;8.23;68.31
10587;BME280;5341;47.606;7.576;2023-02-02T11:28:09;100153.19;;;8.26;67.92
10587;BME280;5341;47.606;7.576;2023-02-02T11:30:39;100143.22;;;8.28;68.13
10587;BME280;5341;47.606;7.576;2023-02-02T11:33:26;100152.06;;;8.28;68.27
10587;BME280;5341;47.606;7.576;2023-02-02T11:35:56;100148.41;;;8.29;68.38
10587;BME280;5341;47.606;7.576;2023-02-02T11:38:24;100149.97;;;8.32;68.25
10587;BME280;5341;47.606;7.576;2023-02-02T11:40:54;100150.69;;;8.34;68.66
10587;BME280;5341;47.606;7.576;2023-02-02T11:43:25;100147.66;;;8.38;68.65
10587;BME280;5341;47.606;7.576;2023-02-02T11:45:57;100130.41;;;8.42;68.61
10587;BME280;5341;47.606;7.576;2023-02-02T11:48:30;100133.91;;;8.43;68.82
10587;BME280;5341;47.606;7.576;2023-02-02T11:50:59;100119.75;;;8.42;69.53
10587;BME280;5341;47.606;7.576;2023-02-02T11:53:29;100114.28;;;8.44;69.13
10587;BME280;5341;47.606;7.576;2023-02-02T11:56:00;100120.44;;;8.44;69.40
10587;BME280;5341;47.606;7.576;2023-02-02T11:58:31;100116.66;;;8.47;69.19
10587;BME280;5341;47.606;7.576;2023-02-02T12:01:21;100125.41;;;8.49;69.25
10587;BME280;5341;47.606;7.576;2023-02-02T12:03:52;100123.81;;;8.46;69.26
10587;BME280;5341;47.606;7.576;2023-02-02T12:06:28;100119.47;;;8.45;69.94
10587;BME280;5341;47.606;7.576;2023-02-02T12:09:03;100125.63;;;8.46;70.12
10587;BME280;5341;47.606;7.576;2023-02-02T12:11:44;100130.84;;;8.47;69.83
10587;BME280;5341;47.606;7.576;2023-02-02T12:14:23;100129.03;;;8.48;69.82
10587;BME280;5341;47.606;7.576;2023-02-02T12:17:02;100126.47;;;8.46;70.20
10587;BME280;5341;47.606;7.576;2023-02-02T12:19:50;100125.78;;;8.44;70.21
10587;BME280;5341;47.606;7.576;2023-02-02T12:22:34;100122.28;;;8.44;70.04
10587;BME280;5341;47.606;7.576;2023-02-02T12:28:19;100125.97;;;8.32;70.38
10587;BME280;5341;47.606;7.576;2023-02-02T12:30:55;100114.75;;;8.28;70.96
10587;BME280;5341;47.606;7.576;2023-02-02T12:33:32;100122.75;;;8.28;70.96
10587;BME280;5341;47.606;7.576;2023-02-02T12:36:38;100128.22;;;8.27;71.11
10587;BME280;5341;47.606;7.576;2023-02-02T12:39:21;100120.22;;;8.27;70.92
10587;BME280;5341;47.606;7.576;2023-02-02T12:42:15;100123.47;;;8.30;70.74
10587;BME280;5341;47.606;7.576;2023-02-02T12:45:01;100117.41;;;8.28;70.90
10587;BME280;5341;47.606;7.576;2023-02-02T12:47:42;100123.72;;;8.27;70.57
10587;BME280;5341;47.606;7.576;2023-02-02T12:50:27;100126.53;;;8.26;70.57
10587;BME280;5341;47.606;7.576;2023-02-02T12:53:17;100126.25;;;8.29;70.52
10587;BME280;5341;47.606;7.576;2023-02-02T12:55:59;100124.56;;;8.28;70.79
10587;BME280;5341;47.606;7.576;2023-02-02T12:58:38;100130.03;;;8.26;71.01
10587;BME280;5341;47.606;7.576;2023-02-02T13:01:18;100131.03;;;8.25;70.36
10587;BME280;5341;47.606;7.576;2023-02-02T13:04:17;100129.91;;;8.28;70.09
10587;BME280;5341;47.606;7.576;2023-02-02T13:09:55;100135.22;;;8.28;70.33
10587;BME280;5341;47.606;7.576;2023-02-02T13:12:25;100125.56;;;8.27;70.07
10587;BME280;5341;47.606;7.576;2023-02-02T13:14:58;100130.75;;;8.28;70.08
10587;BME280;5341;47.606;7.576;2023-02-02T13:17:31;100119.09;;;8.29;69.98
10587;BME280;5341;47.606;7.576;2023-02-02T13:20:06;100125.97;;;8.32;70.13
10587;BME280;5341;47.606;7.576;2023-02-02T13:22:40;100126.81;;;8.32;69.78
10587;BME280;5341;47.606;7.576;2023-02-02T13:25:18;100124.16;;;8.32;69.85
10587;BME280;5341;47.606;7.576;2023-02-02T13:27:48;100113.78;;;8.29;69.65
10587;BME280;5341;47.606;7.576;2023-02-02T13:30:27;100114.06;;;8.26;69.83
10587;BME280;5341;47.606;7.576;2023-02-02T13:32:58;100125.81;;;8.23;69.75
10587;BME280;5341;47.606;7.576;2023-02-02T13:35:30;100121.19;;;8.26;69.50
10587;BME280;5341;47.606;7.576;2023-02-02T13:38:06;100128.91;;;8.29;69.65
10587;BME280;5341;47.606;7.576;2023-02-02T13:40:44;100135.94;;;8.30;69.57
10587;BME280;5341;47.606;7.576;2023-02-02T13:43:23;100127.94;;;8.30;69.11
10587;BME280;5341;47.606;7.576;2023-02-02T13:45:58;100119.94;;;8.30;69.41
10587;BME280;5341;47.606;7.576;2023-02-02T13:48:37;100112.66;;;8.32;69.29
10587;BME280;5341;47.606;7.576;2023-02-02T13:51:27;100113.78;;;8.29;68.87
10587;BME280;5341;47.606;7.576;2023-02-02T13:54:18;100118.97;;;8.31;69.29
10587;BME280;5341;47.606;7.576;2023-02-02T13:56:57;100125.97;;;8.32;68.93
10587;BME280;5341;47.606;7.576;2023-02-02T13:59:50;100120.50;;;8.33;68.75
10587;BME280;5341;47.606;7.576;2023-02-02T14:02:23;100119.56;;;8.34;68.45
10587;BME280;5341;47.606;7.576;2023-02-02T14:04:54;100103.56;;;8.34;68.59
10587;BME280;5341;47.606;7.576;2023-02-02T14:07:29;100109.63;;;8.36;68.68
10587;BME280;5341;47.606;7.576;2023-02-02T14:10:00;100116.50;;;8.39;68.87
10587;BME280;5341;47.606;7.576;2023-02-02T14:12:34;100119.75;;;8.42;68.52
10587;BME280;5341;47.606;7.576;2023-02-02T14:15:04;100126.75;;;8.43;68.45
10587;BME280;5341;47.606;7.576;2023-02-02T14:17:54;100118.75;;;8.43;67.91